createdAt,value
2024-05-09T00:00:48.068Z,100903.55
2024-05-09T00:03:36.386Z,100897.64
2024-05-09T00:06:04.945Z,100891.89
2024-05-09T00:08:33.169Z,100890.75
2024-05-09T00:11:01.504Z,100888.90
2024-05-09T00:13:32.736Z,100888.93
2024-05-09T00:16:00.899Z,100888.63
2024-05-09T00:18:29.176Z,100888.45
2024-05-09T00:20:57.446Z,100886.77
2024-05-09T00:23:45.698Z,100885.90
2024-05-09T00:26:17.499Z,100887.42
2024-05-09T00:28:45.754Z,100883.02
2024-05-09T00:31:13.868Z,100875.63
2024-05-09T00:33:42.283Z,100875.77
2024-05-09T00:36:10.500Z,100876.34
2024-05-09T00:38:38.498Z,100869.46
2024-05-09T00:41:06.765Z,100867.88
2024-05-09T00:43:34.650Z,100868.02
2024-05-09T00:46:02.933Z,100865.46
2024-05-09T00:48:31.603Z,100866.64
2024-05-09T00:51:00.842Z,100869.63
2024-05-09T00:53:29.587Z,100868.61
2024-05-09T00:55:58.899Z,100873.73
2024-05-09T00:58:30.337Z,100878.64
2024-05-09T01:01:01.514Z,100884.30
2024-05-09T01:03:30.198Z,100884.76
2024-05-09T01:05:58.557Z,100877.44
2024-05-09T01:08:27.092Z,100873.77
2024-05-09T01:10:55.278Z,100875.25
2024-05-09T01:13:23.389Z,100874.76
2024-05-09T01:15:53.633Z,100873.88
2024-05-09T01:18:21.996Z,100876.54
2024-05-09T01:20:50.273Z,100875.38
2024-05-09T01:23:18.268Z,100874.98
2024-05-09T01:25:48.909Z,100880.83
2024-05-09T01:28:16.906Z,100877.88
2024-05-09T01:30:44.999Z,100884.10
2024-05-09T01:33:13.708Z,100879.23
2024-05-09T01:35:43.002Z,100878.94
2024-05-09T01:38:13.849Z,100880.05
2024-05-09T01:40:43.284Z,100871.23
2024-05-09T01:43:15.843Z,100875.23
2024-05-09T01:45:44.209Z,100875.02
2024-05-09T01:48:13.092Z,100873.84
2024-05-09T01:50:43.204Z,100875.20
2024-05-09T01:53:15.091Z,100876.86
2024-05-09T01:55:44.296Z,100880.14
2024-05-09T01:58:15.371Z,100878.43
2024-05-09T02:00:43.928Z,100880.60
2024-05-09T02:03:16.366Z,100877.10
2024-05-09T02:05:49.786Z,100872.92
2024-05-09T02:08:20.925Z,100875.85
2024-05-09T02:10:50.749Z,100882.08
2024-05-09T02:13:19.527Z,100882.98
2024-05-09T02:15:51.890Z,100892.31
2024-05-09T02:18:23.474Z,100891.36
2024-05-09T02:20:52.113Z,100892.46
2024-05-09T02:23:20.739Z,100889.08
2024-05-09T02:25:48.821Z,100891.16
2024-05-09T02:28:16.955Z,100892.02
2024-05-09T02:30:45.052Z,100887.54
2024-05-09T02:33:16.671Z,100890.66
2024-05-09T02:35:49.893Z,100888.52
2024-05-09T02:38:18.443Z,100886.98
2024-05-09T02:40:52.366Z,100885.30
2024-05-09T02:43:20.818Z,100882.21
2024-05-09T02:45:48.947Z,100878.95
2024-05-09T02:48:20.022Z,100876.93
2024-05-09T02:50:49.087Z,100879.48
2024-05-09T02:53:19.580Z,100887.65
2024-05-09T02:55:50.857Z,100890.40
2024-05-09T02:58:18.953Z,100890.09
2024-05-09T03:00:47.521Z,100887.36
2024-05-09T03:03:18.485Z,100892.15
2024-05-09T03:05:47.335Z,100897.46
2024-05-09T03:08:15.805Z,100900.73
2024-05-09T03:10:46.460Z,100897.42
2024-05-09T03:13:23.950Z,100902.80
2024-05-09T03:15:52.114Z,100904.85
2024-05-09T03:18:25.461Z,100904.16
2024-05-09T03:21:05.035Z,100908.20
2024-05-09T03:23:37.134Z,100905.89
2024-05-09T03:26:13.129Z,100912.11
2024-05-09T03:28:44.202Z,100915.64
2024-05-09T03:31:18.048Z,100916.20
2024-05-09T03:33:48.527Z,100912.77
2024-05-09T03:36:16.661Z,100915.52
2024-05-09T03:38:45.095Z,100919.98
2024-05-09T03:41:13.458Z,100922.89
2024-05-09T03:43:44.434Z,100928.39
2024-05-09T03:46:19.946Z,100927.06
2024-05-09T03:48:48.199Z,100933.64
2024-05-09T03:51:16.505Z,100935.02
2024-05-09T03:53:48.054Z,100934.92
2024-05-09T03:56:16.387Z,100936.40
2024-05-09T03:58:44.756Z,100938.57
2024-05-09T04:01:33.099Z,100942.08
2024-05-09T04:04:01.453Z,100942.77
2024-05-09T04:06:32.495Z,100941.77
2024-05-09T04:09:05.038Z,100947.46
2024-05-09T04:11:33.782Z,100949.40
2024-05-09T04:14:25.243Z,100956.17
2024-05-09T04:16:56.005Z,100960.75
2024-05-09T04:19:24.654Z,100960.66
2024-05-09T04:21:57.284Z,100959.53
2024-05-09T04:24:25.474Z,100960.49
2024-05-09T04:26:59.462Z,100969.23
2024-05-09T04:29:27.848Z,100969.10
2024-05-09T04:31:59.091Z,100972.46
2024-05-09T04:34:30.632Z,100974.98
2024-05-09T04:37:01.289Z,100980.30
2024-05-09T04:39:29.377Z,100981.91
2024-05-09T04:42:07.157Z,100979.16
2024-05-09T04:45:12.840Z,100979.70
2024-05-09T04:47:41.352Z,100982.33
2024-05-09T04:50:14.513Z,100978.96
2024-05-09T04:52:43.062Z,100984.80
2024-05-09T04:55:13.999Z,100987.41
2024-05-09T04:57:42.416Z,100991.45
2024-05-09T05:00:14.890Z,100991.39
2024-05-09T05:02:59.179Z,100990.17
2024-05-09T05:05:30.221Z,100993.68
2024-05-09T05:07:58.209Z,100998.31
2024-05-09T05:10:36.105Z,100994.80
2024-05-09T05:13:21.238Z,100997.60
2024-05-09T05:15:57.504Z,100996.16
2024-05-09T05:18:27.957Z,101003.98
2024-05-09T05:20:58.220Z,101004.83
2024-05-09T05:23:26.761Z,101009.89
2024-05-09T05:25:55.480Z,101013.91
2024-05-09T05:28:24.134Z,101014.77
2024-05-09T05:30:55.635Z,101012.27
2024-05-09T05:33:24.489Z,101018.66
2024-05-09T05:35:56.549Z,101020.61
2024-05-09T05:38:27.986Z,101017.44
2024-05-09T05:40:56.755Z,101016.02
2024-05-09T05:43:25.214Z,101020.68
2024-05-09T05:45:53.296Z,101019.96
2024-05-09T05:48:22.159Z,101021.05
2024-05-09T05:50:50.808Z,101018.54
2024-05-09T05:53:19.097Z,101020.77
2024-05-09T05:55:50.339Z,101016.56
2024-05-09T05:58:19.969Z,101020.29
2024-05-09T06:00:48.190Z,101018.89
2024-05-09T06:03:18.660Z,101024.20
2024-05-09T06:05:47.066Z,101028.27
2024-05-09T06:08:21.928Z,101029.29
2024-05-09T06:10:50.358Z,101025.88
2024-05-09T06:13:18.705Z,101026.53
2024-05-09T06:15:46.892Z,101031.61
2024-05-09T06:18:15.325Z,101030.05
2024-05-09T06:20:44.468Z,101025.42
2024-05-09T06:23:13.904Z,101019.80
2024-05-09T06:25:43.618Z,101021.51
2024-05-09T06:28:11.761Z,101016.89
2024-05-09T06:30:41.968Z,101014.56
2024-05-09T06:33:13.944Z,101017.92
2024-05-09T06:35:58.957Z,101019.05
2024-05-09T06:38:27.706Z,101021.32
2024-05-09T06:40:55.736Z,101024.74
2024-05-09T06:43:23.756Z,101024.42
2024-05-09T06:45:52.841Z,101026.70
2024-05-09T06:48:28.992Z,101020.36
2024-05-09T06:50:57.695Z,101019.38
2024-05-09T06:53:25.743Z,101018.48
2024-05-09T06:55:54.131Z,101025.77
2024-05-09T06:58:24.768Z,101026.88
2024-05-09T07:00:53.096Z,101036.49
2024-05-09T07:03:21.640Z,101038.81
2024-05-09T07:05:50.400Z,101042.33
2024-05-09T07:08:19.391Z,101039.84
2024-05-09T07:10:48.264Z,101039.34
2024-05-09T07:13:16.565Z,101046.39
2024-05-09T07:15:44.481Z,101045.64
2024-05-09T07:18:17.303Z,101041.62
2024-05-09T07:20:49.022Z,101038.34
2024-05-09T07:23:18.434Z,101038.55
2024-05-09T07:25:49.666Z,101044.55
2024-05-09T07:28:20.754Z,101047.53
2024-05-09T07:30:48.966Z,101046.52
2024-05-09T07:33:24.116Z,101044.78
2024-05-09T07:35:53.472Z,101046.86
2024-05-09T07:38:21.754Z,101046.23
2024-05-09T07:40:50.425Z,101040.31
2024-05-09T07:43:18.712Z,101038.97
2024-05-09T07:45:58.366Z,101038.81
2024-05-09T07:50:01.331Z,101035.54
2024-05-09T07:53:14.245Z,101036.10
2024-05-09T07:54:26.330Z,101039.54
2024-05-09T07:56:55.267Z,101040.52
2024-05-09T07:59:43.770Z,101049.55
2024-05-09T08:02:12.241Z,101045.35
2024-05-09T08:04:40.670Z,101046.34
2024-05-09T08:07:27.486Z,101046.70
2024-05-09T08:10:43.039Z,101044.50
2024-05-09T08:13:20.306Z,101055.40
2024-05-09T08:15:52.601Z,101056.70
2024-05-09T08:18:23.756Z,101053.79
2024-05-09T08:20:55.446Z,101053.11
2024-05-09T08:23:25.078Z,101048.71
2024-05-09T08:25:53.489Z,101056.42
2024-05-09T08:28:21.970Z,101055.46
2024-05-09T08:30:50.465Z,101056.58
2024-05-09T08:33:18.786Z,101057.35
2024-05-09T08:35:47.090Z,101049.90
2024-05-09T08:38:15.207Z,101050.48
2024-05-09T08:40:43.591Z,101051.38
2024-05-09T08:43:13.943Z,101047.48
2024-05-09T08:45:43.851Z,101047.77
2024-05-09T08:48:15.603Z,101048.59
2024-05-09T08:50:45.788Z,101049.38
2024-05-09T08:53:15.583Z,101052.16
2024-05-09T08:55:46.343Z,101049.84
2024-05-09T08:58:19.372Z,101049.31
2024-05-09T09:00:48.949Z,101049.61
2024-05-09T09:03:24.965Z,101055.22
2024-05-09T09:06:07.091Z,101054.04
2024-05-09T09:08:38.781Z,101052.98
2024-05-09T09:11:10.673Z,101056.39
2024-05-09T09:13:45.112Z,101054.71
2024-05-09T09:16:17.851Z,101052.60
2024-05-09T09:18:53.224Z,101053.98
2024-05-09T09:21:32.773Z,101051.67
2024-05-09T09:24:05.019Z,101050.99
2024-05-09T09:26:39.093Z,101051.57
2024-05-09T09:29:07.655Z,101053.38
2024-05-09T09:31:37.279Z,101056.77
2024-05-09T09:34:07.632Z,101056.02
2024-05-09T09:36:38.807Z,101057.84
2024-05-09T09:39:12.294Z,101059.39
2024-05-09T09:41:47.775Z,101060.12
2024-05-09T09:44:58.122Z,101061.55
2024-05-09T09:47:56.820Z,101063.15
2024-05-09T09:50:35.246Z,101061.02
2024-05-09T09:53:10.025Z,101063.20
2024-05-09T09:56:00.878Z,101060.70
2024-05-09T09:58:34.824Z,101064.11
2024-05-09T10:01:06.419Z,101058.18
2024-05-09T10:03:41.063Z,101054.83
2024-05-09T10:06:31.666Z,101058.98
2024-05-09T10:09:22.683Z,101057.27
2024-05-09T10:12:09.731Z,101052.23
2024-05-09T10:14:49.061Z,101051.23
2024-05-09T10:17:24.486Z,101054.75
2024-05-09T10:20:11.880Z,101051.73
2024-05-09T10:22:50.158Z,101046.05
2024-05-09T10:25:24.976Z,101050.79
2024-05-09T10:27:58.570Z,101051.98
2024-05-09T10:30:36.102Z,101051.54
2024-05-09T10:33:11.298Z,101050.05
2024-05-09T10:35:51.505Z,101046.95
2024-05-09T10:38:22.165Z,101045.57
2024-05-09T10:40:59.918Z,101036.46
2024-05-09T10:43:35.378Z,101033.23
2024-05-09T10:46:07.726Z,101030.63
2024-05-09T10:48:36.917Z,101026.85
2024-05-09T10:51:08.444Z,101026.32
2024-05-09T10:53:43.291Z,101025.30
2024-05-09T10:56:13.817Z,101022.21
2024-05-09T10:58:45.183Z,101022.48
2024-05-09T11:01:16.842Z,101020.35
2024-05-09T11:03:48.835Z,101018.77
2024-05-09T11:06:18.210Z,101017.27
2024-05-09T11:08:47.320Z,101018.36
2024-05-09T11:11:16.466Z,101015.91
2024-05-09T11:13:47.702Z,101012.11
2024-05-09T11:16:23.558Z,101008.46
2024-05-09T11:18:55.761Z,101007.77
2024-05-09T11:21:27.522Z,101003.46
2024-05-09T11:23:59.041Z,101001.37
2024-05-09T11:26:30.576Z,101001.18
2024-05-09T11:29:19.672Z,100998.56
2024-05-09T11:31:53.738Z,100997.31
2024-05-09T11:34:22.105Z,101001.97
2024-05-09T11:36:50.282Z,100997.92
2024-05-09T11:39:18.436Z,100990.13
2024-05-09T11:41:46.424Z,100990.52
2024-05-09T11:44:14.443Z,100988.60
2024-05-09T11:46:43.473Z,100987.27
2024-05-09T11:49:11.711Z,100989.19
2024-05-09T11:51:40.308Z,100989.64
2024-05-09T11:54:08.966Z,100986.60
2024-05-09T11:56:38.398Z,100983.73
2024-05-09T11:59:06.401Z,100981.59
2024-05-09T12:01:34.641Z,100980.25
2024-05-09T12:04:05.227Z,100972.91
2024-05-09T12:06:34.034Z,100975.84
2024-05-09T12:09:02.018Z,100975.61
2024-05-09T12:11:30.300Z,100979.17
2024-05-09T12:13:58.629Z,100979.33
2024-05-09T12:16:26.818Z,100972.48
2024-05-09T12:18:55.419Z,100969.59
2024-05-09T12:21:23.598Z,100970.87
2024-05-09T12:23:51.527Z,100973.28
2024-05-09T12:26:19.367Z,100972.33
2024-05-09T12:28:47.486Z,100973.15
2024-05-09T12:31:15.650Z,100970.69
2024-05-09T12:33:44.045Z,100967.77
2024-05-09T12:36:12.496Z,100966.79
2024-05-09T12:38:41.234Z,100966.07
2024-05-09T12:41:10.222Z,100964.57
2024-05-09T12:43:38.137Z,100965.69
2024-05-09T12:46:06.539Z,100966.71
2024-05-09T12:48:34.816Z,100964.25
2024-05-09T12:51:03.062Z,100966.95
2024-05-09T12:53:31.336Z,100961.53
2024-05-09T12:56:02.368Z,100957.88
2024-05-09T12:58:36.592Z,100956.15
2024-05-09T13:01:05.029Z,100950.67
2024-05-09T13:03:33.637Z,100951.25
2024-05-09T13:06:01.969Z,100954.23
2024-05-09T13:08:30.341Z,100949.35
2024-05-09T13:10:58.961Z,100949.20
2024-05-09T13:13:28.733Z,100950.28
2024-05-09T13:15:57.116Z,100946.73
2024-05-09T13:18:25.395Z,100947.91
2024-05-09T13:20:53.558Z,100946.54
2024-05-09T13:23:21.628Z,100942.20
2024-05-09T13:25:49.691Z,100940.05
2024-05-09T13:28:17.877Z,100938.71
2024-05-09T13:30:46.361Z,100938.66
2024-05-09T13:33:14.828Z,100935.02
2024-05-09T13:35:47.293Z,100930.26
2024-05-09T13:38:20.372Z,100927.41
2024-05-09T13:40:50.553Z,100922.85
2024-05-09T13:43:21.564Z,100916.02
2024-05-09T13:45:50.035Z,100911.77
2024-05-09T13:48:19.458Z,100913.27
2024-05-09T13:50:48.303Z,100913.77
2024-05-09T13:53:16.292Z,100914.35
2024-05-09T13:55:44.805Z,100913.73
2024-05-09T13:58:13.216Z,100910.60
2024-05-09T14:00:46.876Z,100915.39
2024-05-09T14:03:19.729Z,100913.95
2024-05-09T14:05:51.151Z,100908.88
2024-05-09T14:08:21.411Z,100907.06
2024-05-09T14:10:50.090Z,100913.75
2024-05-09T14:13:20.188Z,100913.83
2024-05-09T14:15:51.280Z,100912.96
2024-05-09T14:18:22.916Z,100912.04
2024-05-09T14:20:51.108Z,100910.17
2024-05-09T14:23:21.734Z,100914.02
2024-05-09T14:25:53.247Z,100909.98
2024-05-09T14:28:24.467Z,100914.82
2024-05-09T14:30:52.961Z,100912.66
2024-05-09T14:33:26.207Z,100914.56
2024-05-09T14:35:54.998Z,100916.45
2024-05-09T14:38:27.151Z,100912.07
2024-05-09T14:40:58.013Z,100913.55
2024-05-09T14:43:26.658Z,100910.63
2024-05-09T14:45:55.781Z,100910.72
2024-05-09T14:48:24.170Z,100914.77
2024-05-09T14:50:52.724Z,100908.56
2024-05-09T14:53:23.228Z,100913.58
2024-05-09T14:55:54.742Z,100913.30
2024-05-09T14:58:26.064Z,100912.33
2024-05-09T15:01:10.444Z,100910.45
2024-05-09T15:03:38.851Z,100912.23
2024-05-09T15:06:07.227Z,100910.52
2024-05-09T15:08:35.574Z,100910.36
2024-05-09T15:11:05.808Z,100906.46
2024-05-09T15:13:34.050Z,100910.13
2024-05-09T15:16:02.531Z,100908.74
2024-05-09T15:18:30.946Z,100905.13
2024-05-09T15:20:59.529Z,100900.95
2024-05-09T15:23:27.636Z,100895.14
2024-05-09T15:25:55.763Z,100894.60
2024-05-09T15:28:23.826Z,100892.75
2024-05-09T15:30:52.214Z,100890.43
2024-05-09T15:33:20.372Z,100895.41
2024-05-09T15:35:48.293Z,100891.30
2024-05-09T15:38:17.603Z,100890.59
2024-05-09T15:40:45.913Z,100893.69
2024-05-09T15:43:14.236Z,100894.98
2024-05-09T15:45:42.416Z,100894.29
2024-05-09T15:48:11.877Z,100897.11
2024-05-09T15:50:42.750Z,100896.23
2024-05-09T15:53:13.444Z,100895.86
2024-05-09T15:55:43.090Z,100898.73
2024-05-09T15:58:12.054Z,100896.02
2024-05-09T16:00:44.152Z,100899.90
2024-05-09T16:03:15.011Z,100898.05
2024-05-09T16:05:45.801Z,100901.61
2024-05-09T16:08:15.889Z,100902.38
2024-05-09T16:10:45.857Z,100901.88
2024-05-09T16:13:16.493Z,100897.81
2024-05-09T16:15:45.894Z,100898.40
2024-05-09T16:18:19.224Z,100898.27
2024-05-09T16:20:49.533Z,100905.58
2024-05-09T16:23:18.779Z,100903.50
2024-05-09T16:25:47.448Z,100907.07
2024-05-09T16:28:16.126Z,100907.97
2024-05-09T16:30:44.561Z,100908.00
2024-05-09T16:33:12.891Z,100905.46
2024-05-09T16:35:41.309Z,100905.33
2024-05-09T16:38:09.389Z,100907.17
2024-05-09T16:40:40.417Z,100911.79
2024-05-09T16:43:12.184Z,100910.52
2024-05-09T16:45:44.588Z,100913.95
2024-05-09T16:48:13.703Z,100916.41
2024-05-09T16:50:42.263Z,100919.31
2024-05-09T16:53:10.175Z,100925.52
2024-05-09T16:55:38.486Z,100928.87
2024-05-09T16:58:08.621Z,100934.79
2024-05-09T17:00:41.942Z,100933.86
2024-05-09T17:03:15.056Z,100933.57
2024-05-09T17:05:46.629Z,100937.47
2024-05-09T17:08:17.602Z,100934.59
2024-05-09T17:10:48.211Z,100938.19
2024-05-09T17:13:16.636Z,100944.77
2024-05-09T17:15:45.492Z,100947.65
2024-05-09T17:18:14.298Z,100946.29
2024-05-09T17:20:42.289Z,100945.13
2024-05-09T17:23:14.501Z,100946.95
2024-05-09T17:25:43.444Z,100945.77
2024-05-09T17:28:12.331Z,100944.34
2024-05-09T17:30:42.580Z,100946.29
2024-05-09T17:33:12.892Z,100947.47
2024-05-09T17:35:41.998Z,100955.55
2024-05-09T17:38:10.471Z,100954.81
2024-05-09T17:40:39.297Z,100959.59
2024-05-09T17:43:10.404Z,100962.23
2024-05-09T17:45:41.069Z,100961.94
2024-05-09T17:48:11.834Z,100963.16
2024-05-09T17:50:41.922Z,100973.38
2024-05-09T17:53:11.307Z,100971.59
2024-05-09T17:55:40.488Z,100970.70
2024-05-09T17:58:10.293Z,100972.42
2024-05-09T18:00:42.663Z,100977.64
2024-05-09T18:03:12.667Z,100976.27
2024-05-09T18:05:48.732Z,100977.17
2024-05-09T18:08:16.672Z,100984.00
2024-05-09T18:10:48.205Z,100992.98
2024-05-09T18:13:16.338Z,100999.64
2024-05-09T18:15:52.043Z,101010.73
2024-05-09T18:18:31.166Z,101016.14
2024-05-09T18:20:59.494Z,101025.48
2024-05-09T18:23:27.634Z,101027.05
2024-05-09T18:26:11.748Z,101028.21
2024-05-09T18:28:39.794Z,101028.28
2024-05-09T18:31:25.532Z,101028.45
2024-05-09T18:33:57.017Z,101030.15
2024-05-09T18:36:47.931Z,101031.97
2024-05-09T18:39:17.168Z,101036.98
2024-05-09T18:41:45.351Z,101038.41
2024-05-09T18:44:16.337Z,101042.44
2024-05-09T18:46:47.903Z,101048.11
2024-05-09T18:49:36.159Z,101045.45
2024-05-09T18:52:04.454Z,101042.52
2024-05-09T18:54:39.926Z,101048.20
2024-05-09T18:57:08.420Z,101048.25
2024-05-09T18:59:39.155Z,101048.16
2024-05-09T19:02:09.817Z,101052.52
2024-05-09T19:04:38.092Z,101052.41
2024-05-09T19:07:06.293Z,101051.15
2024-05-09T19:09:35.152Z,101051.98
2024-05-09T19:12:06.179Z,101057.17
2024-05-09T19:14:34.155Z,101058.17
2024-05-09T19:17:02.314Z,101062.05
2024-05-09T19:19:30.676Z,101065.27
2024-05-09T19:21:59.193Z,101069.29
2024-05-09T19:24:27.712Z,101067.42
2024-05-09T19:26:56.774Z,101070.64
2024-05-09T19:29:24.978Z,101065.88
2024-05-09T19:31:53.256Z,101065.55
2024-05-09T19:34:21.750Z,101062.91
2024-05-09T19:36:50.034Z,101062.34
2024-05-09T19:39:18.183Z,101063.64
2024-05-09T19:41:46.338Z,101069.77
2024-05-09T19:44:14.636Z,101071.08
2024-05-09T19:46:42.642Z,101071.41
2024-05-09T19:49:11.103Z,101075.87
2024-05-09T19:51:39.923Z,101078.81
2024-05-09T19:54:08.248Z,101079.94
2024-05-09T19:56:36.574Z,101079.24
2024-05-09T19:59:04.705Z,101079.45
2024-05-09T20:01:33.056Z,101084.90
2024-05-09T20:04:01.474Z,101081.42
2024-05-09T20:06:30.470Z,101079.84
2024-05-09T20:08:59.336Z,101079.02
2024-05-09T20:11:32.658Z,101081.88
2024-05-09T20:14:01.169Z,101077.71
2024-05-09T20:16:47.100Z,101072.21
2024-05-09T20:19:14.960Z,101076.11
2024-05-09T20:21:43.702Z,101080.02
2024-05-09T20:24:12.160Z,101086.02
2024-05-09T20:26:40.114Z,101090.56
2024-05-09T20:29:08.273Z,101084.86
2024-05-09T20:31:41.759Z,101085.24
2024-05-09T20:34:10.291Z,101085.34
2024-05-09T20:36:40.978Z,101086.25
2024-05-09T20:39:09.270Z,101086.02
2024-05-09T20:41:43.433Z,101086.82
2024-05-09T20:44:11.715Z,101086.55
2024-05-09T20:46:42.277Z,101082.55
2024-05-09T20:49:10.588Z,101082.99
2024-05-09T20:51:40.858Z,101080.05
2024-05-09T20:54:08.806Z,101081.27
2024-05-09T20:56:37.891Z,101084.52
2024-05-09T20:59:07.325Z,101085.70
2024-05-09T21:01:35.688Z,101087.61
2024-05-09T21:04:07.628Z,101082.69
2024-05-09T21:06:36.130Z,101085.89
2024-05-09T21:09:04.468Z,101083.65
2024-05-09T21:11:32.795Z,101080.02
2024-05-09T21:14:00.977Z,101081.91
2024-05-09T21:16:39.282Z,101080.05
2024-05-09T21:19:07.290Z,101083.16
2024-05-09T21:21:39.705Z,101079.66
2024-05-09T21:24:08.430Z,101081.91
2024-05-09T21:26:37.083Z,101090.16
2024-05-09T21:29:05.507Z,101087.05
2024-05-09T21:31:37.019Z,101090.05
2024-05-09T21:34:05.299Z,101096.77
2024-05-09T21:36:34.007Z,101097.31
2024-05-09T21:39:02.186Z,101092.90
2024-05-09T21:41:35.333Z,101090.88
2024-05-09T21:44:06.723Z,101088.63
2024-05-09T21:46:37.283Z,101087.92
2024-05-09T21:49:07.908Z,101083.98
2024-05-09T21:51:38.582Z,101084.06
2024-05-09T21:54:09.373Z,101083.58
2024-05-09T21:56:40.431Z,101082.14
2024-05-09T21:59:08.774Z,101082.66
2024-05-09T22:01:37.251Z,101082.34
2024-05-09T22:04:05.827Z,101081.03
2024-05-09T22:06:35.099Z,101083.70
2024-05-09T22:09:06.712Z,101083.36
2024-05-09T22:11:56.556Z,101079.49
2024-05-09T22:15:03.777Z,101079.33
2024-05-09T22:17:32.197Z,101078.18
2024-05-09T22:20:28.827Z,101078.39
2024-05-09T22:23:09.736Z,101080.10
2024-05-09T22:25:40.835Z,101079.75
2024-05-09T22:28:13.005Z,101074.02
2024-05-09T22:30:41.446Z,101074.60
2024-05-09T22:33:13.333Z,101069.76
2024-05-09T22:35:53.912Z,101063.38
2024-05-09T22:38:22.273Z,101068.86
2024-05-09T22:41:07.642Z,101070.38
2024-05-09T22:43:38.339Z,101069.79
2024-05-09T22:46:18.020Z,101076.52
2024-05-09T22:48:49.224Z,101074.90
2024-05-09T22:51:17.579Z,101078.76
2024-05-09T22:53:50.453Z,101077.08
2024-05-09T22:56:28.480Z,101076.50
2024-05-09T22:58:57.124Z,101078.16
2024-05-09T23:01:26.781Z,101076.41
2024-05-09T23:04:00.352Z,101073.17
2024-05-09T23:06:31.355Z,101070.13
2024-05-09T23:09:04.452Z,101071.60
2024-05-09T23:11:54.583Z,101070.82
2024-05-09T23:14:30.701Z,101073.61
2024-05-09T23:17:01.120Z,101077.35
2024-05-09T23:19:32.081Z,101078.50
2024-05-09T23:22:23.403Z,101081.20
2024-05-09T23:24:54.848Z,101082.80
2024-05-09T23:27:35.188Z,101080.89
2024-05-09T23:30:07.688Z,101079.27
2024-05-09T23:32:40.667Z,101077.59
2024-05-09T23:35:08.887Z,101077.31
2024-05-09T23:37:39.484Z,101077.55
2024-05-09T23:40:18.146Z,101073.75
2024-05-09T23:43:04.736Z,101074.30
2024-05-09T23:45:35.773Z,101075.98
2024-05-09T23:48:04.793Z,101072.98
2024-05-09T23:50:36.894Z,101072.84
2024-05-09T23:53:08.641Z,101073.05
2024-05-09T23:55:38.394Z,101072.87
2024-05-09T23:58:18.428Z,101074.34
